Time;durP1;ratioP1;P1;durP2;ratioP2;P2;SDS_P1;SDS_P2;PMS_P1;PMS_P2;Temp;Humidity;BMP_temperature;BMP_pressure;BME280_temperature;BME280_humidity;BME280_pressure;Samples;Min_cycle;Max_cycle;Signal;HPM_P1;HPM_P2
2021/07/18 00:01:41;;;;;;;20.00;13.00;;;;;;;26.07;86.70;98407.19;5030070;28;20730;-72
2021/07/18 00:04:09;;;;;;;20.47;12.77;;;;;;;26.21;86.98;98399.91;5030401;28;20206;-73
2021/07/18 00:06:36;;;;;;;20.80;13.43;;;;;;;26.08;86.41;98404.16;5028587;28;20207;-72
2021/07/18 00:09:06;;;;;;;21.00;13.27;;;;;;;26.22;85.95;98399.63;5026514;28;20207;-72
2021/07/18 00:11:33;;;;;;;19.80;12.63;;;;;;;26.03;85.76;98396.00;5033489;28;20249;-73
2021/07/18 00:14:01;;;;;;;21.93;12.47;;;;;;;25.70;88.18;98393.31;5033512;28;20689;-72
2021/07/18 00:16:28;;;;;;;21.40;12.30;;;;;;;26.10;85.74;98395.66;5020389;28;20211;-72
2021/07/18 00:18:55;;;;;;;20.13;12.13;;;;;;;25.93;85.44;98403.50;5040975;28;20690;-73
2021/07/18 00:21:23;;;;;;;17.63;12.13;;;;;;;25.91;86.55;98394.75;5028526;28;20228;-71
2021/07/18 00:23:50;;;;;;;17.63;12.87;;;;;;;25.79;86.39;98402.53;5032010;28;20647;-73
2021/07/18 00:26:19;;;;;;;18.63;12.63;;;;;;;26.21;84.27;98406.22;5031657;28;20218;-73
2021/07/18 00:28:46;;;;;;;18.50;12.63;;;;;;;26.08;83.87;98411.53;5038878;28;20655;-73
2021/07/18 00:31:13;;;;;;;20.63;11.67;;;;;;;25.91;85.43;98403.81;5027702;28;20237;-73
2021/07/18 00:33:41;;;;;;;16.87;11.90;;;;;;;25.94;84.75;98394.22;5032785;28;20202;-73
2021/07/18 00:36:08;;;;;;;16.50;11.50;;;;;;;25.74;85.55;98403.38;5031711;28;20210;-73
2021/07/18 00:38:35;;;;;;;15.87;10.93;;;;;;;26.20;82.79;98403.75;5031213;28;20894;-72
2021/07/18 00:41:03;;;;;;;18.37;11.40;;;;;;;25.89;83.08;98400.50;5032085;28;20230;-73
2021/07/18 00:43:32;;;;;;;19.20;11.50;;;;;;;25.93;82.38;98398.03;5033871;28;20210;-72
2021/07/18 00:46:00;;;;;;;17.23;10.60;;;;;;;25.79;83.18;98394.34;5036759;28;20234;-73
2021/07/18 00:48:29;;;;;;;23.57;11.13;;;;;;;25.69;82.65;98388.97;5033597;28;20203;-73
2021/07/18 00:50:56;;;;;;;12.37;9.57;;;;;;;25.94;81.58;98394.22;5039585;28;20249;-72
2021/07/18 00:53:24;;;;;;;20.53;10.10;;;;;;;25.82;81.84;98391.84;5032857;28;20221;-73
2021/07/18 00:55:52;;;;;;;14.67;9.63;;;;;;;25.67;82.28;98391.97;5032131;28;20202;-73
2021/07/18 00:58:20;;;;;;;14.10;9.17;;;;;;;25.74;81.43;98395.19;5036961;28;20229;-72
2021/07/18 01:00:49;;;;;;;16.37;9.33;;;;;;;25.47;81.90;98400.38;5036848;28;20243;-74
2021/07/18 01:03:16;;;;;;;12.07;8.77;;;;;;;25.63;80.43;98392.81;5036356;28;20293;-73
2021/07/18 01:05:44;;;;;;;13.10;8.77;;;;;;;25.35;81.80;98390.91;5030858;28;20211;-72
2021/07/18 01:08:11;;;;;;;14.97;9.27;;;;;;;25.23;81.55;98393.97;5031776;28;20212;-73
2021/07/18 01:10:39;;;;;;;12.07;7.90;;;;;;;25.69;78.99;98391.69;5031228;28;20222;-74
2021/07/18 01:13:06;;;;;;;10.77;7.20;;;;;;;25.72;77.67;98396.56;5031506;28;20658;-73
2021/07/18 01:15:34;;;;;;;17.67;8.40;;;;;;;25.58;77.71;98393.69;5040923;28;20203;-74
2021/07/18 01:18:03;;;;;;;13.87;7.93;;;;;;;26.05;74.46;98396.53;5031471;28;20218;-73
2021/07/18 01:20:30;;;;;;;11.53;7.00;;;;;;;25.62;75.56;98391.19;5034589;28;20285;-72
2021/07/18 01:22:59;;;;;;;10.87;7.60;;;;;;;25.36;77.62;98387.91;5031614;28;20199;-73
2021/07/18 01:25:26;;;;;;;11.67;7.03;;;;;;;25.66;75.28;98389.53;5029014;28;20210;-72
2021/07/18 01:27:54;;;;;;;10.03;6.77;;;;;;;25.66;74.64;98393.09;5036918;28;20205;-72
2021/07/18 01:30:22;;;;;;;13.70;6.83;;;;;;;25.24;75.15;98387.41;5032273;28;20289;-72
2021/07/18 01:32:49;;;;;;;11.73;6.57;;;;;;;25.69;72.65;98389.75;5036241;28;20210;-73
2021/07/18 01:35:17;;;;;;;11.63;5.87;;;;;;;25.26;73.64;98387.16;5031268;28;20214;-73
2021/07/18 01:37:44;;;;;;;9.87;5.83;;;;;;;25.39;73.25;98387.31;5035422;28;20239;-73
2021/07/18 01:40:13;;;;;;;9.50;5.80;;;;;;;24.76;76.58;98384.75;5039177;28;20302;-73
2021/07/18 01:42:41;;;;;;;11.00;6.03;;;;;;;24.92;72.89;98392.56;5029399;28;20289;-72
2021/07/18 01:45:09;;;;;;;10.60;5.77;;;;;;;24.85;73.19;98389.34;5039005;28;20827;-73
2021/07/18 01:47:37;;;;;;;12.63;5.93;;;;;;;25.13;72.66;98394.06;5034622;28;20197;-72
2021/07/18 01:50:05;;;;;;;9.80;5.00;;;;;;;24.90;73.13;98392.06;5039515;28;20205;-73
2021/07/18 01:52:33;;;;;;;10.83;5.77;;;;;;;25.15;71.71;98396.50;5045161;28;20234;-72
2021/07/18 01:55:00;;;;;;;9.97;5.80;;;;;;;25.11;71.96;98399.00;5037835;28;20205;-74
2021/07/18 01:57:29;;;;;;;9.93;5.23;;;;;;;24.99;71.82;98392.25;5036564;28;20228;-73
2021/07/18 01:59:56;;;;;;;9.37;5.40;;;;;;;25.06;72.30;98396.31;5039321;28;20202;-72
2021/07/18 02:02:24;;;;;;;10.63;5.13;;;;;;;24.72;72.66;98391.91;5036179;28;20241;-73
2021/07/18 02:04:51;;;;;;;8.67;5.20;;;;;;;25.13;70.87;98398.72;5040221;28;20300;-73
2021/07/18 02:07:18;;;;;;;6.40;5.33;;;;;;;24.75;73.42;98391.31;5032101;28;20251;-73
2021/07/18 02:09:46;;;;;;;12.67;6.57;;;;;;;24.95;73.21;98393.91;5031805;28;20205;-72
2021/07/18 02:12:13;;;;;;;9.23;5.40;;;;;;;24.83;72.80;98391.53;5033607;28;20272;-70
2021/07/18 02:14:42;;;;;;;13.83;5.97;;;;;;;24.81;72.82;98390.19;5042410;28;20203;-72
2021/07/18 02:17:09;;;;;;;10.40;5.17;;;;;;;25.03;71.53;98398.78;5034054;28;20211;-72
2021/07/18 02:19:37;;;;;;;9.63;5.60;;;;;;;24.66;74.28;98403.91;5035702;28;20219;-73
2021/07/18 02:22:04;;;;;;;12.00;5.77;;;;;;;24.79;73.68;98406.03;5034351;28;20237;-73
2021/07/18 02:24:32;;;;;;;12.47;5.70;;;;;;;24.60;73.92;98400.41;5034026;28;20587;-72
2021/07/18 02:26:59;;;;;;;8.83;5.80;;;;;;;24.39;74.80;98400.75;5030338;28;20205;-73
2021/07/18 02:29:27;;;;;;;9.13;5.07;;;;;;;24.18;75.05;98407.41;5033854;28;20655;-73
2021/07/18 02:31:56;;;;;;;7.83;5.27;;;;;;;24.14;74.13;98409.03;5034300;28;20252;-72
2021/07/18 02:34:23;;;;;;;9.00;4.93;;;;;;;24.34;72.45;98398.03;5042288;28;20571;-73
2021/07/18 02:36:51;;;;;;;6.67;4.23;;;;;;;24.50;71.60;98405.06;5033074;28;20669;-73
2021/07/18 02:39:18;;;;;;;8.33;4.83;;;;;;;24.46;69.86;98393.06;5046661;28;20220;-71
2021/07/18 02:41:45;;;;;;;9.77;4.70;;;;;;;24.43;69.91;98401.84;5040742;28;20621;-74
2021/07/18 02:44:14;;;;;;;11.07;4.77;;;;;;;24.12;70.54;98406.56;5046866;28;20217;-73
2021/07/18 02:46:41;;;;;;;7.37;4.47;;;;;;;24.51;70.25;98412.97;5029838;28;20658;-71
2021/07/18 02:49:10;;;;;;;8.73;4.50;;;;;;;24.71;69.18;98407.44;5049417;28;20208;-71
2021/07/18 02:51:37;;;;;;;6.57;4.63;;;;;;;24.87;67.37;98410.91;5033505;28;20719;-71
2021/07/18 02:54:05;;;;;;;7.67;4.63;;;;;;;24.37;71.05;98411.94;5040894;28;20837;-71
2021/07/18 02:56:32;;;;;;;6.97;4.70;;;;;;;24.34;71.08;98417.16;5032956;28;20205;-71
2021/07/18 02:58:59;;;;;;;10.10;4.83;;;;;;;24.54;71.26;98417.06;5041871;28;20227;-71
2021/07/18 03:01:27;;;;;;;6.70;4.33;;;;;;;24.29;72.81;98406.25;5033297;28;20243;-72
2021/07/18 03:03:54;;;;;;;9.73;4.80;;;;;;;23.86;74.49;98409.66;5033455;28;20208;-72
2021/07/18 03:06:22;;;;;;;9.40;4.67;;;;;;;23.91;75.52;98415.91;5027646;28;20208;-72
2021/07/18 03:08:50;;;;;;;7.13;4.67;;;;;;;23.69;77.15;98409.94;5033739;28;20208;-72
2021/07/18 03:11:17;;;;;;;8.20;5.10;;;;;;;23.97;75.72;98420.25;5032677;28;20228;-72
2021/07/18 03:13:44;;;;;;;8.50;5.17;;;;;;;23.68;76.71;98412.94;5033171;28;20211;-71
2021/07/18 03:16:11;;;;;;;8.50;5.20;;;;;;;23.73;77.30;98413.75;5032575;28;20209;-71
2021/07/18 03:18:39;;;;;;;9.03;5.17;;;;;;;23.45;79.13;98416.22;5043806;28;20230;-71
2021/07/18 03:21:06;;;;;;;9.43;5.20;;;;;;;23.44;79.30;98415.41;5031688;28;20224;-71
2021/07/18 03:23:34;;;;;;;12.43;5.13;;;;;;;23.52;78.22;98417.56;5030081;28;20219;-72
2021/07/18 03:26:02;;;;;;;10.43;5.00;;;;;;;23.58;78.29;98415.66;5029206;28;20203;-72
2021/07/18 03:28:29;;;;;;;12.40;5.20;;;;;;;23.53;77.39;98421.13;5035042;28;20215;-71
2021/07/18 03:30:57;;;;;;;10.27;5.23;;;;;;;23.68;77.24;98423.84;5033824;28;20235;-71
2021/07/18 03:33:24;;;;;;;7.23;5.17;;;;;;;23.52;77.46;98427.66;5035474;28;20260;-71
2021/07/18 03:35:53;;;;;;;9.00;4.77;;;;;;;23.22;77.70;98416.78;5028875;28;20576;-71
2021/07/18 03:38:20;;;;;;;8.23;4.87;;;;;;;23.50;77.33;98421.66;5036599;28;20318;-71
2021/07/18 03:40:49;;;;;;;7.90;5.20;;;;;;;23.57;75.87;98416.75;5028893;28;20223;-72
2021/07/18 03:43:16;;;;;;;9.77;4.57;;;;;;;23.70;75.31;98421.63;5041412;28;20211;-71
2021/07/18 03:45:43;;;;;;;7.37;4.70;;;;;;;23.66;74.27;98412.41;5030300;28;20200;-71
2021/07/18 03:48:11;;;;;;;7.53;4.97;;;;;;;23.52;75.02;98408.59;5033119;28;20680;-71
2021/07/18 03:50:38;;;;;;;10.13;4.77;;;;;;;23.65;73.98;98417.03;5036585;28;20586;-71
2021/07/18 03:53:05;;;;;;;5.70;4.27;;;;;;;23.72;72.89;98417.53;5033067;28;20212;-71
2021/07/18 03:55:32;;;;;;;7.40;4.07;;;;;;;23.70;72.73;98417.00;5027703;28;20211;-71
2021/07/18 03:58:01;;;;;;;7.00;4.20;;;;;;;24.10;72.04;98427.03;5033137;28;20214;-71
2021/07/18 04:00:28;;;;;;;7.93;4.20;;;;;;;23.83;71.30;98432.81;5023842;28;20215;-72
2021/07/18 04:02:55;;;;;;;6.63;4.07;;;;;;;23.79;70.97;98428.19;5027182;28;20191;-71
2021/07/18 04:05:23;;;;;;;7.57;4.17;;;;;;;23.72;71.42;98423.00;5031091;28;20690;-71
2021/07/18 04:07:50;;;;;;;5.50;3.57;;;;;;;23.71;70.72;98417.84;5033080;28;20208;-71
2021/07/18 04:10:17;;;;;;;4.87;3.73;;;;;;;23.89;68.98;98430.91;5027769;28;20206;-71
2021/07/18 04:12:46;;;;;;;5.93;4.07;;;;;;;23.77;69.79;98430.38;5028640;28;20212;-72
2021/07/18 04:15:15;;;;;;;6.07;3.63;;;;;;;23.46;71.97;98423.31;5026566;28;20209;-71
2021/07/18 04:17:43;;;;;;;5.53;3.50;;;;;;;23.34;71.34;98425.47;5034826;28;20205;-72
2021/07/18 04:20:11;;;;;;;6.87;3.60;;;;;;;23.91;68.85;98431.47;5024857;28;20307;-71
2021/07/18 04:22:38;;;;;;;6.67;3.70;;;;;;;23.56;69.74;98437.72;5032520;28;20209;-71
2021/07/18 04:25:07;;;;;;;8.30;4.07;;;;;;;23.65;70.08;98438.81;5035621;28;20219;-71
2021/07/18 04:27:34;;;;;;;7.40;3.63;;;;;;;23.48;70.54;98432.03;5034837;28;20203;-72
2021/07/18 04:30:01;;;;;;;6.03;3.90;;;;;;;23.57;70.46;98436.63;5029415;28;20756;-71
2021/07/18 04:32:30;;;;;;;12.07;4.27;;;;;;;24.19;68.31;98430.84;5033609;28;20346;-71
2021/07/18 04:34:57;;;;;;;7.03;3.70;;;;;;;23.87;69.71;98433.88;5034449;28;20218;-71
2021/07/18 04:37:24;;;;;;;5.67;3.70;;;;;;;23.83;68.98;98434.72;5027545;28;20209;-71
2021/07/18 04:39:52;;;;;;;9.53;3.70;;;;;;;23.89;68.74;98434.47;5031488;28;20227;-71
2021/07/18 04:42:19;;;;;;;5.47;3.73;;;;;;;23.85;69.11;98430.63;5024824;28;20626;-71
2021/07/18 04:44:46;;;;;;;4.73;3.27;;;;;;;24.03;67.07;98434.72;5031780;28;20661;-71
2021/07/18 04:47:13;;;;;;;7.27;3.80;;;;;;;24.01;66.86;98440.44;5031946;28;20221;-72
2021/07/18 04:49:42;;;;;;;7.10;3.23;;;;;;;23.84;68.50;98437.16;5033099;28;20202;-71
2021/07/18 04:52:09;;;;;;;5.87;3.07;;;;;;;24.25;65.14;98448.81;5031060;28;20240;-71
2021/07/18 04:54:37;;;;;;;5.17;3.00;;;;;;;23.83;67.89;98437.44;5024603;28;20212;-72
2021/07/18 04:57:04;;;;;;;6.37;3.27;;;;;;;24.38;63.77;98450.97;5032359;28;20201;-71
2021/07/18 04:59:31;;;;;;;5.33;2.83;;;;;;;24.42;63.12;98452.84;5025045;28;20599;-72
2021/07/18 05:01:59;;;;;;;6.37;2.77;;;;;;;24.37;62.76;98460.25;5026200;28;20605;-72
2021/07/18 05:04:26;;;;;;;5.57;2.53;;;;;;;24.47;60.94;98458.28;5031134;28;20217;-72
2021/07/18 05:06:54;;;;;;;4.47;2.77;;;;;;;24.79;59.13;98469.66;5022987;28;20572;-71
2021/07/18 05:09:22;;;;;;;6.87;2.90;;;;;;;24.88;58.28;98473.41;5031578;28;20228;-73
2021/07/18 05:11:49;;;;;;;6.97;2.80;;;;;;;24.61;59.77;98467.56;5025574;28;20709;-71
2021/07/18 05:14:16;;;;;;;3.67;2.60;;;;;;;24.47;59.07;98474.66;5030550;28;20206;-72
2021/07/18 05:16:43;;;;;;;7.47;2.47;;;;;;;24.66;58.60;98463.97;5021970;28;20206;-71
2021/07/18 05:19:11;;;;;;;4.07;2.60;;;;;;;25.29;56.20;98474.84;5027667;28;20237;-72
2021/07/18 05:21:38;;;;;;;4.23;2.37;;;;;;;24.62;56.91;98477.38;5024999;28;20233;-72
2021/07/18 05:24:07;;;;;;;4.30;2.10;;;;;;;25.05;56.92;98476.63;5041506;28;20236;-71
2021/07/18 05:26:34;;;;;;;8.90;2.57;;;;;;;25.27;57.32;98470.75;5031262;28;20674;-71
2021/07/18 05:29:01;;;;;;;5.20;2.30;;;;;;;25.80;54.33;98473.31;5045509;28;20202;-71
2021/07/18 05:31:29;;;;;;;4.93;2.70;;;;;;;25.51;55.94;98466.22;5033295;28;20226;-73
2021/07/18 05:33:56;;;;;;;5.97;2.30;;;;;;;25.40;55.39;98465.50;5042422;28;20203;-71
2021/07/18 05:36:23;;;;;;;3.33;2.37;;;;;;;24.76;57.49;98464.75;5036343;28;20786;-71
2021/07/18 05:38:50;;;;;;;4.27;2.23;;;;;;;25.43;55.68;98455.91;5038916;28;20228;-72
2021/07/18 05:41:19;;;;;;;4.13;2.30;;;;;;;24.92;57.14;98462.75;5032148;28;20229;-72
2021/07/18 05:43:46;;;;;;;5.97;2.90;;;;;;;24.92;55.50;98463.56;5043873;28;20210;-72
2021/07/18 05:46:13;;;;;;;2.83;1.97;;;;;;;25.05;56.95;98467.59;5027935;28;20214;-73
2021/07/18 05:48:41;;;;;;;6.83;2.43;;;;;;;25.50;55.55;98464.59;5035370;28;20199;-72
2021/07/18 05:51:08;;;;;;;5.57;2.20;;;;;;;25.62;54.64;98474.06;5029867;28;20230;-71
2021/07/18 05:53:35;;;;;;;4.57;2.40;;;;;;;25.71;53.35;98479.72;5037632;28;20675;-72
2021/07/18 05:56:03;;;;;;;4.90;2.40;;;;;;;25.81;53.22;98480.47;5036759;28;20206;-75
2021/07/18 05:58:31;;;;;;;5.43;2.00;;;;;;;25.70;53.57;98478.88;5037335;28;20233;-72
2021/07/18 06:00:59;;;;;;;3.40;2.27;;;;;;;25.23;54.33;98478.69;5031371;28;20234;-73
2021/07/18 06:03:26;;;;;;;3.77;2.33;;;;;;;24.66;56.71;98469.44;5033624;28;20206;-73
2021/07/18 06:05:53;;;;;;;11.07;1.83;;;;;;;24.07;59.14;98482.16;5034126;28;20587;-74
2021/07/18 06:08:20;;;;;;;6.53;2.10;;;;;;;26.15;50.18;98486.69;5033964;28;20682;-72
2021/07/18 06:10:48;;;;;;;3.93;1.93;;;;;;;26.13;49.62;98497.13;5038890;28;20226;-76
2021/07/18 06:13:15;;;;;;;4.07;1.80;;;;;;;24.69;53.41;98498.91;5044525;28;20214;-75
2021/07/18 06:15:44;;;;;;;5.50;1.63;;;;;;;25.35;52.43;98483.81;5033051;28;20233;-74
2021/07/18 06:18:11;;;;;;;4.40;2.50;;;;;;;25.52;52.46;98490.53;5033701;28;20218;-72
2021/07/18 06:20:38;;;;;;;7.63;1.93;;;;;;;25.41;52.14;98493.63;5032603;28;20228;-71
2021/07/18 06:23:06;;;;;;;2.30;1.50;;;;;;;26.57;48.52;98502.44;5028485;28;20203;-73
2021/07/18 06:25:33;;;;;;;3.70;1.73;;;;;;;25.08;51.58;98508.81;5034070;28;20268;-72
2021/07/18 06:28:00;;;;;;;6.27;1.70;;;;;;;25.63;50.76;98508.47;5034097;28;20222;-73
2021/07/18 06:30:28;;;;;;;4.10;1.57;;;;;;;26.32;48.94;98506.25;5034708;28;20199;-73
2021/07/18 06:32:56;;;;;;;3.93;1.97;;;;;;;26.65;48.26;98513.56;5033577;28;20206;-73
2021/07/18 06:35:24;;;;;;;1.90;1.70;;;;;;;26.43;48.88;98515.16;5034551;28;20217;-73
2021/07/18 06:37:51;;;;;;;3.10;1.83;;;;;;;26.82;48.57;98499.38;5033818;28;20672;-73
2021/07/18 06:40:18;;;;;;;6.13;2.00;;;;;;;26.46;49.21;98515.38;5034348;28;20227;-73
2021/07/18 06:42:45;;;;;;;6.20;2.00;;;;;;;26.25;49.23;98500.28;5034542;28;20675;-73
2021/07/18 06:45:14;;;;;;;6.33;1.83;;;;;;;26.41;48.63;98504.47;5037570;28;20580;-77
2021/07/18 06:47:41;;;;;;;4.93;1.83;;;;;;;26.67;48.09;98505.88;5034050;28;20206;-74
2021/07/18 06:50:11;;;;;;;4.17;1.47;;;;;;;25.23;52.20;98489.59;5016048;28;20218;-75
2021/07/18 06:52:38;;;;;;;2.30;1.50;;;;;;;26.55;48.14;98508.19;5025332;28;20191;-74
2021/07/18 06:55:06;;;;;;;2.73;1.60;;;;;;;26.25;48.39;98500.28;5019777;28;20214;-74
2021/07/18 06:57:34;;;;;;;6.00;2.53;;;;;;;26.79;47.46;98511.75;5031782;28;20209;-75
2021/07/18 07:00:01;;;;;;;3.60;1.90;;;;;;;27.45;46.45;98515.25;5033662;28;20238;-76
2021/07/18 07:02:28;;;;;;;4.10;1.80;;;;;;;25.94;51.50;98506.34;5035487;28;20246;-76
2021/07/18 07:04:56;;;;;;;4.63;2.10;;;;;;;26.14;50.24;98509.69;5041062;28;20202;-75
2021/07/18 07:07:24;;;;;;;2.47;1.40;;;;;;;25.27;53.66;98501.63;5034167;28;20294;-75
2021/07/18 07:09:52;;;;;;;2.77;1.97;;;;;;;25.37;54.61;98498.00;5040039;28;20213;-78
2021/07/18 07:12:19;;;;;;;2.60;1.93;;;;;;;26.41;51.14;98509.16;5038081;28;20226;-79
2021/07/18 07:14:46;;;;;;;5.00;1.93;;;;;;;27.50;47.14;98514.34;5038389;28;20382;-73
2021/07/18 07:17:14;;;;;;;4.83;2.00;;;;;;;26.23;50.19;98513.44;5045293;28;20213;-77
2021/07/18 07:19:41;;;;;;;4.23;1.97;;;;;;;26.21;50.98;98517.56;5034050;28;20225;-73
2021/07/18 07:22:09;;;;;;;5.10;1.70;;;;;;;26.59;48.90;98522.13;5038590;28;20222;-73
2021/07/18 07:24:38;;;;;;;7.07;1.83;;;;;;;27.29;46.95;98522.06;5033855;28;20203;-76
2021/07/18 07:27:06;;;;;;;4.73;1.80;;;;;;;27.29;46.94;98524.81;5041350;28;20579;-73
2021/07/18 07:29:33;;;;;;;4.27;1.80;;;;;;;27.59;46.36;98523.53;5041877;28;20203;-79
2021/07/18 07:32:00;;;;;;;3.63;1.70;;;;;;;26.75;49.15;98516.16;5034008;28;20226;-83
2021/07/18 07:34:27;;;;;;;3.33;1.93;;;;;;;27.07;47.79;98512.75;5044884;28;20545;-76
2021/07/18 07:36:55;;;;;;;5.17;2.00;;;;;;;26.50;49.17;98516.44;5048577;28;20205;-75
2021/07/18 07:39:22;;;;;;;3.37;1.90;;;;;;;26.71;48.64;98517.06;5053537;28;20229;-75
2021/07/18 07:41:51;;;;;;;6.93;1.70;;;;;;;27.55;45.53;98522.50;5046012;28;20219;-74
2021/07/18 07:44:18;;;;;;;2.87;1.53;;;;;;;27.78;46.17;98507.88;5053034;28;20202;-76
2021/07/18 07:46:45;;;;;;;4.03;1.73;;;;;;;27.16;48.44;98511.00;5049286;28;20200;-75
2021/07/18 07:49:13;;;;;;;3.37;1.80;;;;;;;26.46;51.65;98507.16;5041299;28;20199;-75
2021/07/18 07:51:41;;;;;;;3.10;1.30;;;;;;;26.76;49.62;98515.06;5039722;28;20272;-77
2021/07/18 07:54:08;;;;;;;6.63;1.73;;;;;;;27.64;47.33;98515.22;5045641;28;20202;-77
2021/07/18 07:56:36;;;;;;;4.23;1.63;;;;;;;26.37;50.80;98514.41;5051686;28;20660;-77
2021/07/18 07:59:04;;;;;;;5.70;1.97;;;;;;;26.27;52.10;98505.47;5042573;28;20211;-77
2021/07/18 08:01:31;;;;;;;3.10;1.60;;;;;;;27.08;49.98;98514.38;5050988;28;20231;-77
2021/07/18 08:03:59;;;;;;;3.97;1.67;;;;;;;27.93;46.15;98516.69;5047478;28;20663;-77
2021/07/18 08:06:26;;;;;;;7.23;2.20;;;;;;;28.60;44.96;98517.97;5048739;28;20199;-77
2021/07/18 08:08:53;;;;;;;5.23;2.60;;;;;;;27.61;47.67;98516.63;5049627;28;20658;-76
2021/07/18 08:11:21;;;;;;;7.30;1.90;;;;;;;28.32;47.17;98516.28;5042853;28;20707;-76
2021/07/18 08:13:48;;;;;;;6.20;2.10;;;;;;;28.75;45.55;98502.00;5050383;28;20661;-73
2021/07/18 08:16:16;;;;;;;6.80;2.00;;;;;;;28.97;44.71;98518.59;5044446;28;20201;-77
2021/07/18 08:18:44;;;;;;;4.27;1.70;;;;;;;28.42;44.60;98510.66;5033070;28;20200;-73
2021/07/18 08:21:12;;;;;;;4.87;2.00;;;;;;;28.61;44.82;98517.66;5041030;28;20321;-74
2021/07/18 08:23:39;;;;;;;5.23;2.00;;;;;;;27.45;48.14;98503.44;5022567;28;20209;-73
2021/07/18 08:26:07;;;;;;;5.43;1.97;;;;;;;28.82;45.16;98499.66;5031059;28;20208;-74
2021/07/18 08:28:38;;;;;;;4.63;2.00;;;;;;;28.98;44.66;98500.97;5040619;28;20205;-75
2021/07/18 08:31:05;;;;;;;5.00;2.23;;;;;;;28.58;46.26;98501.78;5042441;28;20291;-74
2021/07/18 08:33:34;;;;;;;3.70;1.70;;;;;;;27.39;49.50;98500.00;5051281;28;20204;-74
2021/07/18 08:36:01;;;;;;;5.60;2.10;;;;;;;27.63;48.79;98492.50;5041416;28;20213;-75
2021/07/18 08:38:28;;;;;;;5.77;2.20;;;;;;;28.98;44.19;98506.47;5024732;28;20218;-75
2021/07/18 08:40:59;;;;;;;5.67;1.80;;;;;;;29.82;42.85;98508.41;5009775;28;20710;-75
2021/07/18 08:43:29;;;;;;;5.63;2.00;;;;;;;29.00;43.68;98512.50;5020563;28;20213;-74
2021/07/18 08:46:00;;;;;;;4.50;1.87;;;;;;;28.39;44.76;98505.75;5032577;28;20206;-76
2021/07/18 08:48:37;;;;;;;7.13;2.10;;;;;;;29.14;43.82;98512.47;5041583;28;20204;-77
2021/07/18 08:51:09;;;;;;;4.10;1.83;;;;;;;28.88;44.76;98508.63;5045858;28;20239;-77
2021/07/18 08:53:43;;;;;;;3.77;1.80;;;;;;;29.22;43.63;98506.22;5018708;28;20386;-77
2021/07/18 08:56:13;;;;;;;4.77;2.10;;;;;;;29.73;41.73;98510.28;5031699;28;20201;-77
2021/07/18 08:58:41;;;;;;;6.65;2.20;;;;;;;29.69;41.58;98502.97;5046983;28;20205;-76
2021/07/18 09:01:08;;;;;;;4.67;1.80;;;;;;;29.11;44.61;98499.34;5035726;28;20238;-77
2021/07/18 09:03:37;;;;;;;4.20;1.93;;;;;;;28.88;44.14;98492.91;5034382;28;20208;-76
2021/07/18 09:06:08;;;;;;;4.25;2.17;;;;;;;29.46;43.42;98498.53;5051420;28;20208;-77
2021/07/18 09:08:43;;;;;;;4.28;2.00;;;;;;;29.13;43.76;98497.09;5044198;28;20600;-77
2021/07/18 09:11:17;;;;;;;4.50;2.40;;;;;;;29.39;44.38;98487.94;5050899;28;20251;-77
2021/07/18 09:13:59;;;;;;;4.93;2.37;;;;;;;29.82;42.05;98489.16;5040254;28;20558;-76
2021/07/18 09:16:29;;;;;;;7.90;2.10;;;;;;;28.55;47.20;98485.94;5034755;28;20209;-76
2021/07/18 09:19:18;;;;;;;5.13;2.17;;;;;;;30.50;41.82;98484.03;5037290;28;20207;-74
2021/07/18 09:22:14;;;;;;;4.38;2.10;;;;;;;30.21;41.95;98499.47;5032872;28;20257;-72
2021/07/18 09:24:44;;;;;;;3.85;1.98;;;;;;;29.37;43.54;98486.63;5036579;28;20212;-71
2021/07/18 09:27:15;;;;;;;6.43;2.20;;;;;;;29.17;43.54;98492.59;5047842;28;20209;-74
2021/07/18 09:29:45;;;;;;;3.55;2.05;;;;;;;28.89;45.30;98485.50;5029432;28;20252;-77
2021/07/18 09:32:15;;;;;;;6.13;1.92;;;;;;;28.74;45.22;98480.31;5037468;28;20233;-73
2021/07/18 09:34:45;;;;;;;4.97;2.17;;;;;;;29.27;44.61;98468.44;5034340;28;20571;-72
2021/07/18 09:37:17;;;;;;;4.32;1.73;;;;;;;30.16;43.07;98472.84;5034261;28;20210;-73
2021/07/18 09:39:53;;;;;;;3.83;2.03;;;;;;;30.17;42.58;98473.66;5037805;28;20232;-73
2021/07/18 09:42:42;;;;;;;3.97;1.92;;;;;;;30.15;42.03;98473.19;5034934;28;20227;-74
2021/07/18 09:45:17;;;;;;;7.13;2.33;;;;;;;29.45;43.60;98464.69;5025335;28;20603;-73
2021/07/18 09:47:58;;;;;;;2.60;1.90;;;;;;;29.95;41.98;98465.44;5021155;28;20209;-75
2021/07/18 09:50:30;;;;;;;5.93;1.92;;;;;;;28.88;45.38;98464.66;5037630;28;20622;-74
2021/07/18 09:53:13;;;;;;;5.10;2.10;;;;;;;29.13;44.95;98462.16;5029216;28;20215;-73
2021/07/18 09:55:55;;;;;;;5.47;2.08;;;;;;;28.26;47.02;98455.16;5022952;28;20293;-74
2021/07/18 09:58:23;;;;;;;5.65;1.73;;;;;;;29.54;44.11;98462.03;5029647;28;20216;-76
2021/07/18 10:00:51;;;;;;;3.83;2.13;;;;;;;28.97;48.65;98444.38;5034211;28;20318;-74
2021/07/18 10:03:22;;;;;;;5.55;1.90;;;;;;;30.53;42.31;98457.78;5022723;28;20213;-73
2021/07/18 10:06:05;;;;;;;7.05;1.73;;;;;;;30.44;41.94;98449.50;5033747;28;20666;-74
2021/07/18 10:08:33;;;;;;;5.80;2.00;;;;;;;30.37;42.04;98448.34;5039277;28;20209;-75
2021/07/18 10:11:00;;;;;;;4.30;1.80;;;;;;;30.19;42.47;98457.63;5042000;28;20316;-73
2021/07/18 10:13:29;;;;;;;5.15;2.00;;;;;;;30.60;42.41;98455.41;5044828;28;20206;-74
2021/07/18 10:15:57;;;;;;;4.97;1.70;;;;;;;30.62;41.82;98448.44;5045750;28;20202;-75
2021/07/18 10:18:24;;;;;;;4.90;2.08;;;;;;;30.87;41.26;98446.91;5028938;28;20221;-75
2021/07/18 10:20:51;;;;;;;4.20;2.15;;;;;;;31.86;38.48;98447.59;5039162;28;20222;-74
2021/07/18 10:23:20;;;;;;;5.65;2.15;;;;;;;31.42;38.57;98461.75;5033743;28;20211;-73
2021/07/18 10:25:48;;;;;;;6.00;1.90;;;;;;;31.09;39.40;98460.56;5032585;28;20218;-73
2021/07/18 10:28:17;;;;;;;5.80;2.00;;;;;;;30.61;41.22;98452.31;5047126;28;20213;-74
2021/07/18 10:30:47;;;;;;;4.40;1.95;;;;;;;31.57;40.05;98453.78;5046537;28;20229;-74
2021/07/18 10:33:18;;;;;;;5.65;2.10;;;;;;;31.66;39.60;98460.13;5050318;28;20206;-74
2021/07/18 10:35:46;;;;;;;5.60;2.22;;;;;;;30.77;38.74;98472.00;5045476;28;20202;-74
2021/07/18 10:38:20;;;;;;;4.53;2.00;;;;;;;31.17;39.22;98463.31;5040448;28;20232;-73
2021/07/18 10:40:49;;;;;;;3.80;2.15;;;;;;;31.93;38.62;98458.97;5027118;28;20230;-74
2021/07/18 10:43:35;;;;;;;3.08;2.00;;;;;;;31.61;38.27;98460.28;5045906;28;20210;-73
2021/07/18 10:46:02;;;;;;;3.10;1.83;;;;;;;30.83;40.75;98440.41;5041444;28;20206;-74
2021/07/18 10:48:42;;;;;;;4.00;1.80;;;;;;;31.73;38.09;98446.66;5045302;28;20205;-74
2021/07/18 10:51:10;;;;;;;4.30;1.75;;;;;;;30.53;39.76;98453.09;5046989;28;20225;-74
2021/07/18 10:53:39;;;;;;;5.85;2.20;;;;;;;31.28;37.73;98461.09;5032932;28;20321;-73
2021/07/18 10:56:07;;;;;;;5.35;2.70;;;;;;;30.27;40.48;98438.41;5036225;28;20202;-73
2021/07/18 10:58:46;;;;;;;6.60;2.47;;;;;;;30.35;41.92;98436.84;5046457;28;20209;-73
2021/07/18 11:01:43;;;;;;;6.22;2.25;;;;;;;31.24;38.57;98443.56;5048191;28;20312;-73
2021/07/18 11:04:41;;;;;;;3.58;1.95;;;;;;;30.40;39.27;98439.44;4976142;28;20208;-74
2021/07/18 11:07:26;;;;;;;6.43;2.13;;;;;;;29.67;40.88;98453.75;5033895;28;20218;-73
2021/07/18 11:09:56;;;;;;;3.67;1.60;;;;;;;31.55;37.80;98452.47;5032925;28;20213;-73
2021/07/18 11:12:25;;;;;;;6.78;2.10;;;;;;;30.52;38.57;98459.75;5043332;28;20230;-73
2021/07/18 11:14:53;;;;;;;4.15;2.00;;;;;;;31.90;36.93;98446.63;5049582;28;20205;-73
2021/07/18 11:17:28;;;;;;;2.85;1.98;;;;;;;32.16;37.50;98439.09;5043242;28;20206;-74
2021/07/18 11:20:00;;;;;;;4.80;2.00;;;;;;;33.20;35.45;98441.00;5048534;28;20255;-74
2021/07/18 11:23:00;;;;;;;5.05;2.05;;;;;;;31.02;37.79;98450.00;5034422;28;20237;-73
2021/07/18 11:25:49;;;;;;;7.30;2.03;;;;;;;29.87;41.50;98439.47;5036543;28;20230;-73
2021/07/18 11:28:36;;;;;;;7.38;2.08;;;;;;;30.24;40.78;98436.28;5041129;28;20202;-73
2021/07/18 11:31:41;;;;;;;4.88;1.90;;;;;;;31.79;37.93;98439.84;5038964;28;20226;-73
2021/07/18 11:34:17;;;;;;;3.28;1.98;;;;;;;32.12;37.93;98445.59;4996164;28;20622;-73
2021/07/18 11:36:55;;;;;;;3.10;1.92;;;;;;;30.26;40.79;98439.53;5043023;28;20212;-73
2021/07/18 11:39:25;;;;;;;4.72;2.20;;;;;;;29.78;41.42;98437.78;5029423;28;20202;-73
2021/07/18 11:41:55;;;;;;;5.32;2.17;;;;;;;31.43;38.87;98436.59;5037426;28;20233;-73